createdAt,value
2019-05-01T00:02:47.831Z,23.12
2019-05-01T00:05:26.094Z,19.90
2019-05-01T00:07:56.802Z,21.23
2019-05-01T00:10:28.783Z,18.85
2019-05-01T00:12:59.457Z,19.75
2019-05-01T00:15:32.488Z,20.95
2019-05-01T00:18:02.817Z,24.32
2019-05-01T00:20:33.534Z,23.57
2019-05-01T00:23:03.819Z,21.97
2019-05-01T00:25:34.551Z,23.80
2019-05-01T00:28:05.030Z,21.20
2019-05-01T00:30:36.061Z,21.77
2019-05-01T00:33:06.523Z,18.62
2019-05-01T00:35:36.728Z,22.50
2019-05-01T00:38:06.993Z,22.70
2019-05-01T00:40:37.640Z,25.17
2019-05-01T00:43:07.935Z,20.75
2019-05-01T00:45:38.282Z,21.12
2019-05-01T00:48:08.581Z,22.82
2019-05-01T00:50:38.913Z,20.37
2019-05-01T00:53:09.565Z,22.45
2019-05-01T00:55:50.242Z,28.27
2019-05-01T00:58:34.233Z,22.42
2019-05-01T01:03:52.312Z,20.95
2019-05-01T01:06:22.694Z,19.73
2019-05-01T01:08:53.006Z,23.73
2019-05-01T01:11:23.592Z,19.07
2019-05-01T01:13:54.027Z,25.85
2019-05-01T01:16:24.320Z,21.40
2019-05-01T01:18:55.045Z,23.73
2019-05-01T01:21:25.743Z,23.60
2019-05-01T01:23:56.920Z,25.57
2019-05-01T01:26:28.002Z,19.05
2019-05-01T01:28:58.324Z,23.05
2019-05-01T01:31:28.703Z,23.18
2019-05-01T01:34:31.932Z,21.93
2019-05-01T01:37:02.705Z,24.82
2019-05-01T01:39:33.158Z,26.33
2019-05-01T01:42:03.947Z,21.55
2019-05-01T01:45:02.485Z,20.90
2019-05-01T01:47:33.156Z,22.30
2019-05-01T01:50:03.508Z,25.00
2019-05-01T01:52:34.152Z,23.02
2019-05-01T01:55:04.666Z,23.75
2019-05-01T01:57:35.101Z,27.30
2019-05-01T02:00:07.943Z,24.77
2019-05-01T02:02:49.976Z,24.73
2019-05-01T02:05:24.200Z,24.23
2019-05-01T02:07:54.679Z,25.48
2019-05-01T02:10:25.216Z,21.37
2019-05-01T02:12:55.611Z,24.05
2019-05-01T02:15:25.969Z,23.95
2019-05-01T02:17:56.631Z,25.02
2019-05-01T02:20:27.036Z,26.10
2019-05-01T02:22:57.700Z,22.17
2019-05-01T02:25:29.483Z,23.98
2019-05-01T02:28:33.597Z,23.42
2019-05-01T02:31:29.285Z,26.45
2019-05-01T02:33:57.464Z,28.07
2019-05-01T02:36:29.859Z,21.05
2019-05-01T02:39:01.675Z,23.32
2019-05-01T02:41:36.182Z,27.82
2019-05-01T02:44:34.590Z,25.90
2019-05-01T02:47:09.204Z,24.18
2019-05-01T02:49:52.169Z,24.52
2019-05-01T02:52:26.666Z,24.23
2019-05-01T02:55:02.431Z,26.68
2019-05-01T02:57:34.754Z,26.12
2019-05-01T03:00:06.547Z,26.80
2019-05-01T03:02:39.051Z,22.70
2019-05-01T03:05:10.288Z,24.77
2019-05-01T03:07:42.095Z,25.05
2019-05-01T03:10:13.056Z,27.65
2019-05-01T03:12:46.045Z,25.60
2019-05-01T03:15:17.197Z,26.10
2019-05-01T03:18:10.365Z,24.40
2019-05-01T03:20:56.351Z,25.20
2019-05-01T03:23:51.944Z,24.63
2019-05-01T03:26:22.956Z,27.70
2019-05-01T03:28:53.468Z,29.00
2019-05-01T03:31:23.948Z,27.82
2019-05-01T03:33:54.829Z,28.35
2019-05-01T03:36:25.521Z,25.97
2019-05-01T03:38:56.070Z,27.17
2019-05-01T03:41:26.645Z,27.05
2019-05-01T03:43:57.791Z,25.52
2019-05-01T03:46:28.347Z,32.70
2019-05-01T03:48:58.753Z,27.22
2019-05-01T03:51:29.328Z,26.05
2019-05-01T03:53:59.888Z,30.10
2019-05-01T03:56:31.084Z,28.50
2019-05-01T03:59:01.879Z,24.82
2019-05-01T04:02:00.478Z,28.95
2019-05-01T04:04:31.916Z,24.02
2019-05-01T04:07:02.757Z,26.02
2019-05-01T04:09:33.172Z,25.62
2019-05-01T04:12:04.583Z,25.45
2019-05-01T04:14:38.921Z,25.60
2019-05-01T04:17:32.332Z,26.25
2019-05-01T04:20:03.412Z,24.92
2019-05-01T04:22:34.400Z,26.77
2019-05-01T04:25:06.296Z,27.95
2019-05-01T04:27:39.465Z,27.58
2019-05-01T04:30:20.287Z,26.50
2019-05-01T04:32:54.340Z,27.05
2019-05-01T04:35:43.810Z,28.02
2019-05-01T04:38:14.510Z,30.48
2019-05-01T04:40:45.868Z,26.02
2019-05-01T04:43:16.214Z,28.77
2019-05-01T04:45:46.980Z,29.27
2019-05-01T04:48:17.358Z,25.82
2019-05-01T04:50:48.076Z,29.40
2019-05-01T04:53:19.547Z,30.85
2019-05-01T04:55:50.550Z,25.92
2019-05-01T04:58:20.839Z,32.03
2019-05-01T05:00:51.812Z,30.00
2019-05-01T05:03:24.574Z,28.47
2019-05-01T05:05:55.062Z,28.42
2019-05-01T05:08:25.667Z,27.13
2019-05-01T05:10:58.943Z,34.35
2019-05-01T05:13:35.299Z,31.80
2019-05-01T05:16:16.097Z,25.97
2019-05-01T05:18:46.764Z,31.93
2019-05-01T05:21:17.558Z,32.05
2019-05-01T05:23:48.129Z,26.87
2019-05-01T05:26:19.653Z,28.07
2019-05-01T05:28:51.922Z,31.93
2019-05-01T05:31:24.898Z,26.07
2019-05-01T05:33:57.797Z,27.22
2019-05-01T05:36:29.765Z,29.40
2019-05-01T05:39:09.261Z,31.62
2019-05-01T05:41:40.130Z,22.62
2019-05-01T05:44:10.564Z,24.77
2019-05-01T05:46:42.032Z,28.85
2019-05-01T05:49:12.916Z,25.37
2019-05-01T05:51:52.040Z,26.05
2019-05-01T05:54:41.992Z,26.25
2019-05-01T05:57:20.532Z,24.52
2019-05-01T05:59:55.873Z,23.55
2019-05-01T06:02:42.162Z,26.40
2019-05-01T06:05:22.630Z,30.05
2019-05-01T06:08:11.570Z,24.82
2019-05-01T06:10:58.580Z,27.32
2019-05-01T06:13:47.709Z,26.52
2019-05-01T06:16:34.805Z,30.80
2019-05-01T06:19:19.257Z,25.15
2019-05-01T06:22:10.113Z,28.92
2019-05-01T06:24:45.065Z,31.77
2019-05-01T06:27:16.451Z,30.30
2019-05-01T06:29:50.436Z,24.53
2019-05-01T06:32:20.875Z,25.85
2019-05-01T06:34:51.964Z,27.90
2019-05-01T06:37:25.336Z,26.82
2019-05-01T06:39:55.168Z,25.88
2019-05-01T06:42:26.003Z,28.15
2019-05-01T06:45:02.672Z,27.87
2019-05-01T06:47:48.446Z,26.75
2019-05-01T06:50:36.977Z,23.87
2019-05-01T06:53:07.556Z,21.20
2019-05-01T06:55:39.317Z,27.02
2019-05-01T06:58:09.712Z,23.92
2019-05-01T07:00:43.023Z,24.45
2019-05-01T07:03:14.566Z,25.08
2019-05-01T07:05:48.983Z,24.27
2019-05-01T07:10:50.277Z,22.20
2019-05-01T07:13:21.095Z,22.02
2019-05-01T07:15:51.484Z,23.60
2019-05-01T07:18:23.721Z,25.82
2019-05-01T07:20:54.426Z,25.77
2019-05-01T07:23:25.560Z,24.95
2019-05-01T07:25:58.688Z,24.37
2019-05-01T07:28:34.184Z,24.50
2019-05-01T07:31:06.319Z,21.62
2019-05-01T07:33:36.921Z,21.55
2019-05-01T07:36:14.998Z,21.00
2019-05-01T07:38:40.568Z,22.05
2019-05-01T07:41:12.492Z,22.93
2019-05-01T07:43:54.911Z,22.75
2019-05-01T07:46:48.912Z,22.45
2019-05-01T07:49:17.638Z,23.42
2019-05-01T07:51:53.432Z,22.37
2019-05-01T07:54:24.356Z,22.67
2019-05-01T07:56:58.749Z,23.15
2019-05-01T07:59:28.651Z,20.27
2019-05-01T08:02:02.625Z,25.25
2019-05-01T08:04:36.632Z,21.12
2019-05-01T08:07:05.814Z,21.27
2019-05-01T08:09:36.499Z,21.60
2019-05-01T08:12:07.356Z,21.33
2019-05-01T08:14:38.070Z,24.12
2019-05-01T08:17:12.912Z,21.57
2019-05-01T08:19:52.356Z,24.50
2019-05-01T08:22:25.255Z,20.82
2019-05-01T08:24:58.818Z,23.57
2019-05-01T08:27:40.174Z,21.95
2019-05-01T08:30:32.007Z,23.07
2019-05-01T08:33:14.557Z,21.37
2019-05-01T08:35:45.532Z,22.95
2019-05-01T08:38:15.916Z,21.10
2019-05-01T08:40:46.355Z,22.75
2019-05-01T08:43:18.116Z,24.82
2019-05-01T08:46:11.896Z,23.07
2019-05-01T08:49:15.547Z,21.02
2019-05-01T08:51:46.333Z,21.50
2019-05-01T08:54:16.800Z,22.70
2019-05-01T08:56:47.253Z,20.43
2019-05-01T08:59:19.446Z,23.47
2019-05-01T09:02:00.880Z,28.23
2019-05-01T09:04:25.213Z,23.25
2019-05-01T09:06:54.405Z,21.80
2019-05-01T09:09:24.916Z,22.50
2019-05-01T09:11:56.037Z,24.43
2019-05-01T09:14:29.942Z,25.05
2019-05-01T09:16:59.477Z,22.32
2019-05-01T09:19:29.917Z,21.33
2019-05-01T09:22:00.391Z,25.62
2019-05-01T09:24:31.339Z,28.07
2019-05-01T09:27:12.344Z,24.60
2019-05-01T09:29:46.799Z,22.55
2019-05-01T09:32:18.787Z,23.70
2019-05-01T09:34:49.676Z,24.47
2019-05-01T09:37:20.181Z,25.08
2019-05-01T09:39:50.831Z,19.87
2019-05-01T09:42:23.716Z,24.18
2019-05-01T09:44:54.092Z,22.90
2019-05-01T09:47:25.694Z,22.10
2019-05-01T09:49:56.942Z,20.45
2019-05-01T09:52:46.240Z,19.80
2019-05-01T09:55:47.653Z,18.48
2019-05-01T09:58:18.058Z,17.85
2019-05-01T10:00:52.751Z,19.55
2019-05-01T10:03:23.376Z,19.05
2019-05-01T10:05:54.026Z,17.15
2019-05-01T10:08:24.729Z,18.92
2019-05-01T10:10:55.191Z,15.38
2019-05-01T10:13:25.757Z,14.75
2019-05-01T10:15:56.425Z,21.93
2019-05-01T10:18:27.297Z,15.13
2019-05-01T10:20:58.359Z,13.40
2019-05-01T10:23:29.062Z,12.70
2019-05-01T10:26:01.110Z,12.13
2019-05-01T10:28:37.814Z,12.65
2019-05-01T10:31:21.113Z,12.55
2019-05-01T10:36:35.911Z,12.03
2019-05-01T10:39:08.606Z,9.65
2019-05-01T10:41:41.086Z,9.75
2019-05-01T10:44:11.759Z,11.73
2019-05-01T10:46:42.233Z,11.30
2019-05-01T10:49:12.674Z,12.40
2019-05-01T10:51:43.263Z,9.18
2019-05-01T10:54:14.032Z,9.70
2019-05-01T10:56:44.372Z,10.70
2019-05-01T10:59:14.810Z,9.10
2019-05-01T11:01:51.982Z,13.08
2019-05-01T11:04:22.417Z,14.33
2019-05-01T11:06:52.825Z,10.03
2019-05-01T11:09:23.193Z,10.53
2019-05-01T11:11:53.971Z,10.82
2019-05-01T11:14:24.350Z,11.18
2019-05-01T11:16:54.797Z,8.58
2019-05-01T11:19:25.780Z,7.00
2019-05-01T11:21:56.516Z,9.15
2019-05-01T11:24:26.956Z,9.88
2019-05-01T11:26:57.305Z,13.40
2019-05-01T11:29:29.583Z,9.93
2019-05-01T11:32:16.908Z,10.28
2019-05-01T11:35:21.659Z,13.22
2019-05-01T11:38:07.829Z,12.23
2019-05-01T11:40:40.745Z,12.05
2019-05-01T11:43:11.191Z,11.20
2019-05-01T11:45:41.649Z,12.68
2019-05-01T11:48:12.292Z,13.13
2019-05-01T11:50:42.702Z,10.45
2019-05-01T11:53:13.124Z,12.55
2019-05-01T11:55:44.327Z,10.98
2019-05-01T11:58:15.193Z,12.23
2019-05-01T12:03:12.114Z,12.47
2019-05-01T12:05:42.439Z,8.23
2019-05-01T12:08:12.802Z,10.78
2019-05-01T12:10:43.199Z,9.38
2019-05-01T12:13:13.462Z,9.35
2019-05-01T12:15:45.519Z,11.35
2019-05-01T12:18:15.923Z,10.88
2019-05-01T12:20:46.356Z,11.48
2019-05-01T12:23:16.731Z,10.63
2019-05-01T12:25:47.028Z,11.95
2019-05-01T12:28:17.401Z,11.85
2019-05-01T12:30:48.006Z,12.33
2019-05-01T12:42:19.590Z,13.67
2019-05-01T12:44:51.910Z,12.47
2019-05-01T12:47:50.242Z,12.68
2019-05-01T12:50:25.846Z,10.00
2019-05-01T12:53:18.932Z,11.08
2019-05-01T12:56:16.410Z,10.63
2019-05-01T12:58:51.241Z,10.72
2019-05-01T13:01:31.770Z,11.90
2019-05-01T13:04:08.898Z,9.33
2019-05-01T13:15:51.575Z,11.28
2019-05-01T13:18:22.138Z,13.53
2019-05-01T13:20:52.660Z,9.70
2019-05-01T13:23:25.367Z,8.60
2019-05-01T13:25:59.138Z,10.55
2019-05-01T13:28:54.617Z,10.65
2019-05-01T13:31:53.003Z,12.40
2019-05-01T13:34:23.582Z,12.30
2019-05-01T13:37:02.897Z,8.80
2019-05-01T13:39:27.300Z,10.45
2019-05-01T13:41:57.852Z,11.65
2019-05-01T13:44:30.974Z,11.33
2019-05-01T13:47:01.642Z,13.95
2019-05-01T13:49:32.169Z,8.15
2019-05-01T13:52:02.803Z,7.65
2019-05-01T13:54:33.222Z,9.80
2019-05-01T13:57:03.680Z,11.03
2019-05-01T13:59:34.288Z,10.05
2019-05-01T14:02:04.840Z,15.03
2019-05-01T14:04:36.137Z,12.60
2019-05-01T14:07:16.345Z,12.10
2019-05-01T14:09:39.441Z,12.98
2019-05-01T14:12:10.170Z,13.85
2019-05-01T14:15:29.846Z,11.78
2019-05-01T14:18:00.429Z,11.10
2019-05-01T14:20:48.614Z,10.30
2019-05-01T14:23:36.744Z,10.32
2019-05-01T14:26:13.157Z,9.30
2019-05-01T14:28:43.885Z,10.70
2019-05-01T14:31:14.445Z,8.45
2019-05-01T14:33:44.930Z,8.90
2019-05-01T14:36:15.738Z,9.93
2019-05-01T14:38:46.323Z,10.00
2019-05-01T14:41:16.894Z,13.30
2019-05-01T14:43:49.515Z,8.68
2019-05-01T14:46:20.216Z,9.40
2019-05-01T14:48:50.803Z,12.55
2019-05-01T14:51:21.950Z,9.00
2019-05-01T14:53:52.713Z,10.88
2019-05-01T14:56:23.296Z,11.25
2019-05-01T14:58:53.967Z,9.20
2019-05-01T15:01:24.484Z,9.48
2019-05-01T15:03:55.096Z,13.35
2019-05-01T15:06:25.947Z,8.68
2019-05-01T15:08:58.525Z,11.60
2019-05-01T15:11:29.464Z,8.95
2019-05-01T15:14:06.526Z,10.58
2019-05-01T15:16:48.820Z,8.63
2019-05-01T15:19:21.920Z,11.22
2019-05-01T15:21:52.956Z,9.33
2019-05-01T15:24:23.755Z,8.85
2019-05-01T15:26:54.274Z,11.22
2019-05-01T15:29:24.782Z,10.85
2019-05-01T15:31:55.407Z,8.65
2019-05-01T15:34:25.850Z,12.23
2019-05-01T15:36:56.546Z,8.23
2019-05-01T15:39:40.972Z,8.48
2019-05-01T15:42:29.191Z,12.55
2019-05-01T15:44:59.753Z,11.78
2019-05-01T15:47:37.675Z,10.38
2019-05-01T15:50:11.205Z,10.95
2019-05-01T15:55:11.359Z,20.95
2019-05-01T15:57:42.021Z,10.20
2019-05-01T16:00:17.106Z,10.28
2019-05-01T16:02:47.971Z,9.58
2019-05-01T16:05:18.559Z,9.18
2019-05-01T16:07:49.067Z,9.40
2019-05-01T16:10:23.582Z,8.20
2019-05-01T16:12:58.579Z,9.83
2019-05-01T16:15:33.838Z,9.03
2019-05-01T16:18:05.373Z,7.70
2019-05-01T16:21:09.515Z,11.07
2019-05-01T16:23:50.958Z,9.65
2019-05-01T16:26:21.749Z,12.73
2019-05-01T16:28:52.561Z,8.85
2019-05-01T16:31:23.121Z,8.58
2019-05-01T16:33:53.653Z,9.78
2019-05-01T16:36:24.334Z,12.00
2019-05-01T16:39:07.619Z,13.18
2019-05-01T16:41:38.202Z,8.78
2019-05-01T16:44:07.642Z,10.45
2019-05-01T16:46:38.228Z,10.32
2019-05-01T16:49:09.116Z,7.95
2019-05-01T16:51:41.572Z,8.53
2019-05-01T16:54:11.977Z,9.73
2019-05-01T16:56:51.060Z,14.23
2019-05-01T16:59:22.824Z,11.60
2019-05-01T17:02:04.085Z,9.20
2019-05-01T17:04:52.950Z,9.43
2019-05-01T17:07:30.456Z,11.90
2019-05-01T17:10:25.777Z,10.18
2019-05-01T17:12:56.689Z,10.40
2019-05-01T17:15:34.824Z,8.90
2019-05-01T17:18:05.427Z,11.57
2019-05-01T17:20:36.066Z,12.53
2019-05-01T17:23:06.784Z,10.08
2019-05-01T17:25:37.630Z,11.25
2019-05-01T17:28:09.443Z,9.75
2019-05-01T17:30:50.951Z,8.03
2019-05-01T17:33:23.905Z,10.95
2019-05-01T17:35:54.382Z,11.57
2019-05-01T17:38:25.904Z,11.48
2019-05-01T17:40:56.476Z,8.85
2019-05-01T17:43:29.671Z,9.43
2019-05-01T17:46:05.969Z,8.45
2019-05-01T17:48:34.917Z,13.28
2019-05-01T17:51:05.577Z,12.70
2019-05-01T17:53:36.259Z,10.25
2019-05-01T17:56:14.718Z,13.65
2019-05-01T17:58:42.986Z,8.45
2019-05-01T18:01:33.062Z,12.03
2019-05-01T18:04:19.665Z,8.48
2019-05-01T18:06:51.920Z,8.88
2019-05-01T18:09:22.471Z,10.23
2019-05-01T18:11:53.728Z,8.63
2019-05-01T18:14:24.428Z,10.98
2019-05-01T18:16:54.889Z,10.88
2019-05-01T18:19:25.719Z,11.55
2019-05-01T18:22:09.649Z,7.20
2019-05-01T18:25:09.157Z,9.08
2019-05-01T18:28:03.244Z,8.30
2019-05-01T18:30:39.484Z,9.93
2019-05-01T18:33:10.737Z,11.08
2019-05-01T18:35:44.895Z,9.25
2019-05-01T18:38:32.144Z,13.22
2019-05-01T18:41:18.212Z,11.90
2019-05-01T18:43:48.894Z,10.95
2019-05-01T18:46:19.875Z,12.40
2019-05-01T18:48:50.671Z,12.68
2019-05-01T18:51:21.662Z,11.05
2019-05-01T18:54:02.705Z,12.13
2019-05-01T18:56:41.435Z,16.35
2019-05-01T18:59:12.217Z,13.32
2019-05-01T19:01:48.527Z,17.15
2019-05-01T19:04:18.352Z,14.23
2019-05-01T19:06:49.980Z,14.28
2019-05-01T19:09:29.766Z,21.05
2019-05-01T19:11:57.543Z,13.55
2019-05-01T19:14:30.649Z,12.40
2019-05-01T19:17:01.253Z,12.78
2019-05-01T19:19:35.240Z,15.93
2019-05-01T19:22:09.648Z,17.32
2019-05-01T19:24:40.304Z,14.33
2019-05-01T19:27:14.258Z,12.07
2019-05-01T19:29:52.958Z,12.68
2019-05-01T19:32:24.330Z,16.52
2019-05-01T19:34:55.071Z,21.50
2019-05-01T19:37:28.208Z,20.62
2019-05-01T19:39:58.382Z,13.55
2019-05-01T19:42:29.114Z,14.43
2019-05-01T19:44:59.962Z,15.30
2019-05-01T19:47:30.997Z,13.45
2019-05-01T19:50:07.508Z,15.18
2019-05-01T19:52:40.446Z,16.42
2019-05-01T19:55:11.444Z,12.03
2019-05-01T19:57:42.121Z,14.70
2019-05-01T20:00:13.677Z,13.80
2019-05-01T20:02:44.453Z,13.60
2019-05-01T20:05:15.074Z,13.83
2019-05-01T20:07:45.910Z,14.43
2019-05-01T20:10:18.331Z,12.70
2019-05-01T20:12:48.785Z,11.90
2019-05-01T20:15:24.487Z,12.65
2019-05-01T20:17:52.332Z,12.55
2019-05-01T20:20:22.877Z,15.10
2019-05-01T20:22:55.329Z,16.95
2019-05-01T20:25:25.680Z,13.13
2019-05-01T20:27:57.357Z,16.17
2019-05-01T20:30:28.047Z,16.10
2019-05-01T20:33:02.262Z,12.70
2019-05-01T20:35:34.144Z,14.20
2019-05-01T20:38:03.467Z,21.85
2019-05-01T20:40:34.352Z,16.27
2019-05-01T20:43:15.778Z,16.62
2019-05-01T20:45:57.944Z,16.00
2019-05-01T20:48:28.491Z,15.35
2019-05-01T20:51:05.145Z,18.57
2019-05-01T20:53:35.962Z,15.32
2019-05-01T20:56:14.098Z,13.00
2019-05-01T20:58:45.510Z,16.35
2019-05-01T21:01:17.481Z,16.25
2019-05-01T21:04:13.464Z,17.57
2019-05-01T21:06:47.235Z,14.00
2019-05-01T21:12:05.116Z,17.02
2019-05-01T21:14:28.823Z,16.25
2019-05-01T21:16:59.822Z,14.45
2019-05-01T21:19:33.002Z,17.32
2019-05-01T21:22:04.034Z,14.15
2019-05-01T21:24:35.650Z,14.73
2019-05-01T21:27:06.580Z,15.83
2019-05-01T21:29:37.525Z,18.05
2019-05-01T21:32:08.517Z,18.10
2019-05-01T21:34:38.999Z,21.12
2019-05-01T21:37:09.738Z,24.60
2019-05-01T21:39:49.404Z,29.12
2019-05-01T21:42:19.892Z,32.35
2019-05-01T21:44:50.356Z,29.67
2019-05-01T21:47:23.524Z,41.85
2019-05-01T21:49:53.598Z,38.58
2019-05-01T21:52:26.845Z,37.40
2019-05-01T21:54:57.332Z,26.50
2019-05-01T21:57:32.269Z,29.40
2019-05-01T22:00:00.381Z,33.65
2019-05-01T22:02:31.298Z,32.03
2019-05-01T22:05:03.747Z,31.40
2019-05-01T22:07:34.074Z,31.82
2019-05-01T22:10:04.687Z,36.35
2019-05-01T22:12:35.332Z,33.00
2019-05-01T22:15:18.882Z,34.00
2019-05-01T22:18:20.349Z,37.40
2019-05-01T22:20:59.841Z,32.05
2019-05-01T22:23:32.309Z,35.73
2019-05-01T22:26:03.107Z,30.12
2019-05-01T22:28:50.124Z,31.87
2019-05-01T22:31:41.631Z,33.23
2019-05-01T22:34:27.707Z,31.45
2019-05-01T22:36:58.500Z,27.77
2019-05-01T22:39:30.901Z,29.70
2019-05-01T22:42:01.298Z,22.25
2019-05-01T22:44:32.167Z,25.62
2019-05-01T22:47:02.696Z,31.90
2019-05-01T22:49:33.177Z,26.90
2019-05-01T22:52:04.202Z,28.73
2019-05-01T22:54:37.722Z,24.98
2019-05-01T22:57:13.973Z,24.60
2019-05-01T22:59:44.509Z,30.27
2019-05-01T23:02:24.151Z,38.28
2019-05-01T23:04:56.099Z,33.75
2019-05-01T23:07:27.282Z,30.85
2019-05-01T23:09:59.264Z,36.45
2019-05-01T23:12:30.207Z,36.13
2019-05-01T23:15:00.625Z,36.98
2019-05-01T23:17:39.589Z,38.10
2019-05-01T23:20:10.122Z,37.58
2019-05-01T23:22:40.603Z,41.68
2019-05-01T23:25:11.449Z,38.15
2019-05-01T23:27:42.104Z,41.18
2019-05-01T23:30:15.728Z,43.83
2019-05-01T23:32:47.319Z,44.33
2019-05-01T23:35:17.771Z,39.08
2019-05-01T23:37:48.205Z,42.48
2019-05-01T23:40:19.170Z,43.83
2019-05-01T23:42:52.820Z,43.65
2019-05-01T23:45:24.810Z,46.63
2019-05-01T23:47:55.331Z,46.83
2019-05-01T23:50:25.758Z,37.40
2019-05-01T23:52:56.539Z,44.18
2019-05-01T23:55:27.016Z,37.58
2019-05-01T23:57:57.494Z,36.80
